Time;durP1;ratioP1;P1;durP2;ratioP2;P2;SDS_P1;SDS_P2;PMS_P1;PMS_P2;Temp;Humidity;BMP_temperature;BMP_pressure;BME280_temperature;BME280_humidity;BME280_pressure;Samples;Min_cycle;Max_cycle;Signal;HPM_P1;HPM_P2
2023/11/05 00:02:04;;;;;;;5.20;1.40;;;;;;;12.05;67.94;95616.44;4951054;29;20559;-77
2023/11/05 00:04:31;;;;;;;6.20;1.60;;;;;;;12.06;68.01;95615.41;4952503;28;20097;-76
2023/11/05 00:06:58;;;;;;;1.85;0.90;;;;;;;12.08;67.82;95618.66;4954484;29;20551;-77
2023/11/05 00:09:24;;;;;;;5.95;1.75;;;;;;;12.09;68.13;95622.94;4955796;29;20743;-78
2023/11/05 00:11:51;;;;;;;3.60;1.20;;;;;;;12.10;67.77;95613.19;4954539;29;20065;-76
2023/11/05 00:14:17;;;;;;;5.20;1.42;;;;;;;12.12;67.91;95608.53;4954663;29;20063;-77
2023/11/05 00:16:44;;;;;;;5.53;1.50;;;;;;;12.12;67.62;95617.22;4955804;29;20051;-77
2023/11/05 00:19:10;;;;;;;3.13;1.05;;;;;;;12.12;67.61;95611.97;4955956;29;20118;-77
2023/11/05 00:21:37;;;;;;;4.78;1.13;;;;;;;12.13;67.66;95607.50;4955211;29;20051;-78
2023/11/05 00:24:04;;;;;;;5.25;1.00;;;;;;;12.13;67.59;95615.41;4955317;29;20089;-77
2023/11/05 00:26:30;;;;;;;8.70;1.85;;;;;;;12.14;67.69;95617.03;4955542;29;20122;-76
2023/11/05 00:28:57;;;;;;;3.35;1.10;;;;;;;12.14;67.74;95611.75;4954558;29;20554;-76
2023/11/05 00:31:24;;;;;;;4.88;1.23;;;;;;;12.15;67.73;95608.09;4955254;29;20118;-77
2023/11/05 00:33:51;;;;;;;5.53;1.70;;;;;;;12.16;67.56;95608.94;4955293;29;20043;-77
2023/11/05 00:36:18;;;;;;;3.33;1.40;;;;;;;12.18;67.50;95614.84;4955145;29;20051;-77
2023/11/05 00:38:45;;;;;;;4.40;1.20;;;;;;;12.19;67.49;95605.91;4955126;29;20092;-76
2023/11/05 00:41:11;;;;;;;5.45;1.40;;;;;;;12.19;67.80;95601.44;4953973;29;20059;-77
2023/11/05 00:43:38;;;;;;;3.97;1.27;;;;;;;12.20;67.59;95596.97;4955254;29;20091;-76
2023/11/05 00:46:05;;;;;;;2.97;1.13;;;;;;;12.19;67.49;95608.53;4953896;29;20043;-76
2023/11/05 00:48:32;;;;;;;7.18;1.20;;;;;;;12.19;67.28;95614.59;4955107;29;20055;-77
2023/11/05 00:50:59;;;;;;;4.78;1.33;;;;;;;12.18;67.09;95606.94;4954707;29;20507;-77
2023/11/05 00:53:26;;;;;;;6.05;1.33;;;;;;;12.17;67.16;95607.91;4953861;29;20115;-76
2023/11/05 00:55:54;;;;;;;2.67;1.27;;;;;;;12.13;67.29;95607.50;4955007;29;20151;-76
2023/11/05 00:58:21;;;;;;;4.78;1.48;;;;;;;12.12;66.99;95611.16;4954797;29;20543;-76
2023/11/05 01:00:47;;;;;;;6.47;1.50;;;;;;;12.10;67.33;95602.63;4954763;29;20098;-77
2023/11/05 01:03:14;;;;;;;4.63;1.08;;;;;;;12.08;67.03;95609.94;4954827;29;20110;-76
2023/11/05 01:05:41;;;;;;;5.65;1.48;;;;;;;12.06;67.13;95594.31;4954700;29;20083;-76
2023/11/05 01:08:07;;;;;;;5.50;1.23;;;;;;;12.05;67.27;95597.97;4954819;29;20055;-76
2023/11/05 01:10:34;;;;;;;7.80;1.20;;;;;;;12.06;67.20;95606.69;4954438;29;20051;-77
2023/11/05 01:13:00;;;;;;;4.13;1.33;;;;;;;12.06;67.68;95598.78;4954879;29;20047;-77
2023/11/05 01:15:27;;;;;;;5.60;1.38;;;;;;;12.07;67.23;95603.06;4954696;29;20050;-76
2023/11/05 01:17:53;;;;;;;5.95;1.83;;;;;;;12.06;67.35;95599.59;4954520;28;20050;-76
2023/11/05 01:20:20;;;;;;;3.80;1.50;;;;;;;12.07;67.50;95597.78;4954196;29;20091;-76
2023/11/05 01:22:47;;;;;;;2.65;1.00;;;;;;;12.07;67.46;95593.31;4954673;28;20047;-76
2023/11/05 01:25:13;;;;;;;6.45;1.08;;;;;;;12.09;67.39;95580.75;4954490;29;20047;-76
2023/11/05 01:27:40;;;;;;;6.00;1.42;;;;;;;12.09;67.24;95583.38;4954219;29;20480;-77
2023/11/05 01:30:08;;;;;;;4.63;1.27;;;;;;;12.10;67.29;95586.81;4954275;29;20047;-76
2023/11/05 01:32:35;;;;;;;2.53;1.10;;;;;;;12.11;67.27;95577.91;4954270;28;20094;-77
2023/11/05 01:35:03;;;;;;;3.97;1.23;;;;;;;12.10;67.01;95578.91;4953992;29;20055;-76
2023/11/05 01:37:29;;;;;;;5.57;1.60;;;;;;;12.10;67.11;95579.72;4954267;28;20149;-79
2023/11/05 01:39:57;;;;;;;4.90;1.25;;;;;;;12.11;66.97;95575.25;4954085;29;20065;-77
2023/11/05 01:42:24;;;;;;;4.88;1.10;;;;;;;12.11;67.27;95581.34;4954057;29;20135;-76
2023/11/05 01:44:50;;;;;;;6.47;1.40;;;;;;;12.10;67.24;95571.00;4954031;29;20055;-77
2023/11/05 01:47:17;;;;;;;5.00;1.25;;;;;;;12.11;67.16;95570.00;4952910;29;20058;-76
2023/11/05 01:49:50;;;;;;;9.35;1.58;;;;;;;12.11;67.04;95564.72;4953601;29;20385;-76
2023/11/05 01:52:19;;;;;;;4.03;1.42;;;;;;;12.11;66.89;95570.00;4954152;29;20055;-77
2023/11/05 01:54:46;;;;;;;6.07;1.20;;;;;;;12.11;66.70;95560.25;4953738;29;20051;-77
2023/11/05 01:57:13;;;;;;;4.53;1.08;;;;;;;12.10;66.79;95560.47;4953755;29;20051;-76
2023/11/05 01:59:40;;;;;;;2.75;0.95;;;;;;;12.10;66.65;95557.81;4953546;29;20448;-76
2023/11/05 02:02:07;;;;;;;4.57;1.10;;;;;;;12.10;66.80;95560.47;4953639;29;20094;-76
2023/11/05 02:04:35;;;;;;;6.47;1.40;;;;;;;12.10;66.83;95552.56;4953756;29;20110;-77
2023/11/05 02:07:02;;;;;;;5.55;1.70;;;;;;;12.08;66.68;95552.75;4952540;29;20055;-77
2023/11/05 02:09:31;;;;;;;5.43;1.40;;;;;;;12.07;66.48;95550.34;4953814;29;20047;-76
2023/11/05 02:12:00;;;;;;;5.25;1.23;;;;;;;12.06;66.67;95543.44;4953690;29;20055;-76
2023/11/05 02:14:27;;;;;;;4.78;1.38;;;;;;;12.05;66.60;95539.16;4953295;29;20071;-76
2023/11/05 02:16:53;;;;;;;4.80;1.20;;;;;;;12.01;66.55;95538.75;4953496;29;20409;-76
2023/11/05 02:19:20;;;;;;;4.57;1.33;;;;;;;11.99;66.53;95540.75;4953529;28;20094;-77
2023/11/05 02:21:51;;;;;;;5.30;1.38;;;;;;;11.97;66.70;95534.88;4953306;29;20047;-76
2023/11/05 02:24:18;;;;;;;5.72;1.30;;;;;;;11.97;66.58;95535.69;4953588;29;20102;-76
2023/11/05 02:26:56;;;;;;;3.90;1.00;;;;;;;11.93;67.37;95534.47;4953380;29;20139;-77
2023/11/05 02:29:22;;;;;;;3.85;1.00;;;;;;;11.96;66.94;95528.78;4952827;28;20066;-77
2023/11/05 02:31:49;;;;;;;3.40;1.02;;;;;;;11.98;67.01;95531.22;4953084;29;20106;-78
2023/11/05 02:34:16;;;;;;;3.70;1.13;;;;;;;12.00;67.10;95529.19;4952978;29;20051;-76
2023/11/05 02:36:45;;;;;;;4.05;1.10;;;;;;;12.00;67.22;95521.28;4953250;29;20051;-76
2023/11/05 02:39:11;;;;;;;4.47;1.15;;;;;;;12.02;67.28;95527.19;4951950;29;20082;-76
2023/11/05 02:41:38;;;;;;;4.03;1.17;;;;;;;12.05;67.20;95523.34;4953117;29;20055;-76
2023/11/05 02:44:05;;;;;;;4.60;1.13;;;;;;;12.08;67.19;95528.25;4953169;29;20097;-76
2023/11/05 02:46:32;;;;;;;4.85;1.02;;;;;;;12.10;67.15;95524.38;4951790;29;20054;-77
2023/11/05 02:48:58;;;;;;;2.97;1.27;;;;;;;12.12;67.21;95527.63;4951821;29;20128;-76
2023/11/05 02:51:25;;;;;;;6.55;1.27;;;;;;;12.16;67.00;95524.59;4951682;29;20055;-77
2023/11/05 02:53:51;;;;;;;6.88;1.55;;;;;;;12.19;67.05;95518.91;4952873;29;20480;-77
2023/11/05 02:56:18;;;;;;;5.38;1.27;;;;;;;12.20;66.82;95517.91;4952625;29;20051;-76
2023/11/05 02:58:44;;;;;;;4.95;1.35;;;;;;;12.22;66.92;95523.75;4952910;29;20106;-77
2023/11/05 03:01:11;;;;;;;3.47;1.00;;;;;;;12.24;66.81;95521.75;4951532;29;20149;-76
2023/11/05 03:03:38;;;;;;;5.40;1.20;;;;;;;12.26;66.71;95524.97;4952691;29;20047;-76
2023/11/05 03:06:06;;;;;;;1.60;0.82;;;;;;;12.27;66.83;95518.72;4952749;29;20055;-76
2023/11/05 03:08:33;;;;;;;6.47;1.52;;;;;;;12.29;66.70;95516.66;4952724;28;20114;-76
2023/11/05 03:11:00;;;;;;;6.03;1.45;;;;;;;12.30;66.75;95513.00;4952555;29;20062;-76
2023/11/05 03:13:26;;;;;;;4.03;1.30;;;;;;;12.31;66.62;95503.28;4953037;29;20047;-76
2023/11/05 03:15:53;;;;;;;6.93;1.52;;;;;;;12.32;66.57;95513.63;4952893;29;20054;-76
2023/11/05 03:18:20;;;;;;;3.30;1.38;;;;;;;12.33;66.52;95507.34;4952810;29;20059;-77
2023/11/05 03:20:47;;;;;;;6.93;1.63;;;;;;;12.34;66.62;95500.25;4952699;29;20051;-76
2023/11/05 03:23:13;;;;;;;6.90;1.55;;;;;;;12.34;66.67;95511.59;4952860;28;20047;-76
2023/11/05 03:25:47;;;;;;;5.60;1.10;;;;;;;12.34;66.66;95503.69;4952898;29;20084;-76
2023/11/05 03:28:14;;;;;;;3.63;1.17;;;;;;;12.34;66.73;95502.88;4951458;29;20090;-78
2023/11/05 03:30:40;;;;;;;2.75;0.90;;;;;;;12.34;66.60;95498.41;4952564;28;20055;-76
2023/11/05 03:33:07;;;;;;;4.38;1.02;;;;;;;12.33;66.83;95491.53;4952633;29;20125;-76
2023/11/05 03:35:34;;;;;;;5.28;1.00;;;;;;;12.33;66.55;95496.78;4951517;29;20043;-76
2023/11/05 03:38:00;;;;;;;3.25;0.98;;;;;;;12.34;66.77;95489.69;4952425;29;20055;-76
2023/11/05 03:40:27;;;;;;;4.05;0.80;;;;;;;12.34;66.83;95493.13;4953587;28;20090;-76
2023/11/05 03:42:53;;;;;;;4.88;1.25;;;;;;;12.34;66.66;95485.22;4956510;29;20059;-77
2023/11/05 03:45:20;;;;;;;3.15;1.13;;;;;;;12.35;66.97;95486.03;4955285;29;20082;-76
2023/11/05 03:47:46;;;;;;;3.85;0.90;;;;;;;12.34;66.56;95477.31;4956285;29;20073;-76
2023/11/05 03:50:13;;;;;;;4.57;1.20;;;;;;;12.34;66.80;95485.22;4954994;29;20087;-76
2023/11/05 03:52:40;;;;;;;6.03;1.20;;;;;;;12.33;66.88;95474.88;4956155;29;20091;-76
2023/11/05 03:55:07;;;;;;;2.38;0.85;;;;;;;12.32;66.87;95474.09;4956316;28;20058;-76
2023/11/05 03:57:34;;;;;;;4.97;1.00;;;;;;;12.33;66.93;95469.59;4956174;29;20110;-77
2023/11/05 04:00:00;;;;;;;6.07;1.65;;;;;;;12.32;67.04;95468.81;4956123;28;20086;-76
2023/11/05 04:02:27;;;;;;;3.25;1.08;;;;;;;12.33;67.15;95472.25;4954779;29;20044;-76
2023/11/05 04:04:53;;;;;;;4.65;1.02;;;;;;;12.32;67.17;95468.00;4955954;29;20118;-77
2023/11/05 04:07:20;;;;;;;5.75;1.02;;;;;;;12.31;67.14;95464.56;4955845;28;20051;-77
2023/11/05 04:09:47;;;;;;;4.97;1.13;;;;;;;12.31;67.12;95463.75;4955896;29;20144;-76
2023/11/05 04:12:13;;;;;;;4.78;1.25;;;;;;;12.31;67.26;95467.19;4955661;29;20079;-76
2023/11/05 04:14:40;;;;;;;6.68;1.40;;;;;;;12.29;67.29;95456.03;4955540;29;20052;-77
2023/11/05 04:17:06;;;;;;;5.03;1.23;;;;;;;12.30;67.53;95460.28;4955562;29;20567;-77
2023/11/05 04:19:33;;;;;;;7.13;1.40;;;;;;;12.29;67.43;95457.88;4955673;29;20059;-76
2023/11/05 04:22:00;;;;;;;7.32;1.20;;;;;;;12.29;67.47;95461.31;4955556;29;20074;-77
2023/11/05 04:24:26;;;;;;;5.97;1.40;;;;;;;12.29;67.70;95445.47;4955627;29;20130;-76
2023/11/05 04:26:53;;;;;;;7.25;1.50;;;;;;;12.28;67.59;95451.78;4955478;29;20048;-77
2023/11/05 04:29:20;;;;;;;3.55;0.90;;;;;;;12.30;67.67;95451.56;4955527;29;20059;-76
2023/11/05 04:31:46;;;;;;;4.00;0.95;;;;;;;12.29;67.82;95448.13;4954150;29;20051;-77
2023/11/05 04:34:13;;;;;;;7.07;1.60;;;;;;;12.29;67.66;95453.38;4955405;29;20047;-76
2023/11/05 04:36:41;;;;;;;3.30;1.00;;;;;;;12.30;67.69;95443.66;4955478;29;20409;-76
2023/11/05 04:39:08;;;;;;;3.05;1.27;;;;;;;12.31;67.86;95445.28;4955657;29;20047;-77
2023/11/05 04:41:34;;;;;;;5.95;1.02;;;;;;;12.31;67.75;95447.91;4955207;29;20058;-76
2023/11/05 04:44:01;;;;;;;2.72;1.20;;;;;;;12.32;67.70;95449.53;4954158;29;20467;-76
2023/11/05 04:46:29;;;;;;;4.80;1.10;;;;;;;12.30;67.91;95444.47;4954019;29;20055;-76
2023/11/05 04:48:56;;;;;;;10.15;1.70;;;;;;;12.29;67.93;95445.47;4955108;29;20139;-77
2023/11/05 04:51:24;;;;;;;4.78;1.50;;;;;;;12.28;67.96;95438.59;4954894;28;20191;-77
2023/11/05 04:53:51;;;;;;;4.97;1.25;;;;;;;12.28;68.00;95435.13;4955252;29;20082;-76
2023/11/05 04:56:17;;;;;;;3.15;1.10;;;;;;;12.26;68.06;95437.97;4954935;29;20062;-77
2023/11/05 04:58:44;;;;;;;3.80;1.10;;;;;;;12.27;68.00;95425.63;4955027;29;20568;-77
2023/11/05 05:01:10;;;;;;;7.95;1.20;;;;;;;12.27;68.16;95431.72;4954652;29;20047;-76
2023/11/05 05:03:37;;;;;;;4.15;0.95;;;;;;;12.25;68.53;95436.34;4955151;29;20058;-77
2023/11/05 05:06:04;;;;;;;4.50;1.00;;;;;;;12.25;68.35;95447.72;4955080;29;20047;-76
2023/11/05 05:08:31;;;;;;;7.07;1.33;;;;;;;12.24;68.32;95440.84;4954945;29;20043;-76
2023/11/05 05:10:57;;;;;;;4.57;1.15;;;;;;;12.25;68.43;95431.09;4954565;29;20055;-77
2023/11/05 05:13:24;;;;;;;4.75;1.20;;;;;;;12.25;68.30;95431.09;4953675;29;20452;-76
2023/11/05 05:15:50;;;;;;;3.92;1.10;;;;;;;12.25;68.39;95436.34;4954564;29;20087;-76
2023/11/05 05:18:17;;;;;;;3.13;0.77;;;;;;;12.24;68.49;95440.03;4954944;29;20055;-77
2023/11/05 05:20:44;;;;;;;2.78;0.80;;;;;;;12.25;68.83;95444.28;4953411;29;20047;-76
2023/11/05 05:23:10;;;;;;;6.35;1.02;;;;;;;12.24;68.67;95434.75;4954692;29;20134;-76
2023/11/05 05:25:37;;;;;;;3.95;0.90;;;;;;;12.24;68.69;95442.66;4954543;29;20727;-76
2023/11/05 05:28:03;;;;;;;3.50;1.20;;;;;;;12.23;68.75;95435.78;4954360;29;20051;-77
2023/11/05 05:30:30;;;;;;;5.80;1.00;;;;;;;12.23;68.68;95433.13;4954140;29;20110;-77
2023/11/05 05:32:57;;;;;;;2.75;1.02;;;;;;;12.23;68.84;95433.94;4954331;29;20477;-77
2023/11/05 05:35:24;;;;;;;3.20;1.00;;;;;;;12.25;68.89;95439.81;4954609;29;20062;-77
2023/11/05 05:37:50;;;;;;;2.28;1.00;;;;;;;12.26;68.96;95437.97;4954481;29;20102;-77
2023/11/05 05:40:17;;;;;;;6.45;1.10;;;;;;;12.27;68.90;95439.63;4954228;29;20071;-76
2023/11/05 05:42:43;;;;;;;3.58;0.95;;;;;;;12.27;69.10;95442.25;4952929;29;20052;-76
2023/11/05 05:45:10;;;;;;;4.38;1.10;;;;;;;12.29;68.91;95442.06;4954145;29;20078;-77
2023/11/05 05:47:37;;;;;;;3.65;1.00;;;;;;;12.30;69.08;95444.47;4954288;29;20055;-77
2023/11/05 05:50:04;;;;;;;3.47;1.25;;;;;;;12.30;68.93;95447.09;4953879;29;20492;-76
2023/11/05 05:52:30;;;;;;;3.65;1.08;;;;;;;12.33;69.25;95445.88;4954012;29;20098;-76
2023/11/05 05:54:57;;;;;;;2.17;0.98;;;;;;;12.34;69.14;95450.16;4953927;29;20057;-78
2023/11/05 05:57:24;;;;;;;7.47;1.20;;;;;;;12.34;69.40;95447.50;4954020;29;20047;-78
2023/11/05 05:59:51;;;;;;;5.85;0.85;;;;;;;12.34;69.26;95445.66;4959068;28;20047;-77
2023/11/05 06:02:18;;;;;;;4.57;1.13;;;;;;;12.35;69.31;95447.31;4962859;28;20055;-77
2023/11/05 06:04:46;;;;;;;2.28;0.80;;;;;;;12.37;69.22;95445.25;4961851;28;20202;-77
2023/11/05 06:07:13;;;;;;;4.30;0.93;;;;;;;12.39;69.05;95447.69;4952443;29;20134;-76
2023/11/05 06:09:39;;;;;;;2.85;0.70;;;;;;;12.39;69.17;95447.69;4953627;29;20051;-76
2023/11/05 06:12:06;;;;;;;2.15;0.77;;;;;;;12.42;69.22;95457.03;4953457;29;20047;-76
2023/11/05 06:14:33;;;;;;;3.13;1.42;;;;;;;12.41;69.04;95448.28;4953785;29;20124;-78
2023/11/05 06:17:12;;;;;;;1.92;0.93;;;;;;;12.42;69.15;95455.22;4953739;29;20058;-76
2023/11/05 06:19:38;;;;;;;5.13;1.40;;;;;;;12.43;68.99;95453.38;4953406;29;20051;-76
2023/11/05 06:22:05;;;;;;;2.67;0.95;;;;;;;12.43;69.13;95456.00;4969499;28;20042;-77
2023/11/05 06:24:32;;;;;;;2.65;0.98;;;;;;;12.43;69.08;95464.72;4972720;28;20051;-77
2023/11/05 06:26:58;;;;;;;4.68;1.00;;;;;;;12.41;68.93;95460.69;4972799;28;20086;-76
2023/11/05 06:29:25;;;;;;;5.22;1.23;;;;;;;12.41;68.86;95460.69;4972930;28;20059;-78
2023/11/05 06:31:51;;;;;;;3.88;0.90;;;;;;;12.41;69.12;95460.69;4971333;28;20090;-78
2023/11/05 06:34:18;;;;;;;3.20;0.95;;;;;;;12.41;69.18;95458.06;4971353;28;20483;-77
2023/11/05 06:37:02;;;;;;;6.22;1.02;;;;;;;12.37;69.98;95466.38;4971384;28;20050;-76
2023/11/05 06:39:29;;;;;;;3.17;0.95;;;;;;;12.43;69.16;95474.47;4971519;28;20109;-75
2023/11/05 06:41:57;;;;;;;4.70;1.00;;;;;;;12.42;69.27;95468.41;4972186;28;20047;-76
2023/11/05 06:44:23;;;;;;;4.88;1.30;;;;;;;12.43;69.30;95475.28;4971312;28;20050;-75
2023/11/05 06:46:50;;;;;;;3.80;1.02;;;;;;;12.45;69.22;95472.44;4972456;28;20137;-76
2023/11/05 06:49:19;;;;;;;2.88;0.98;;;;;;;12.45;69.05;95467.16;4972438;28;20051;-77
2023/11/05 06:51:46;;;;;;;4.13;1.38;;;;;;;12.46;69.26;95480.16;4972030;28;20078;-77
2023/11/05 06:54:13;;;;;;;4.38;1.10;;;;;;;12.47;69.39;95476.50;4972331;28;20522;-77
2023/11/05 06:56:39;;;;;;;3.10;0.90;;;;;;;12.48;69.52;95487.84;4971090;28;20200;-76
2023/11/05 06:59:07;;;;;;;3.63;0.95;;;;;;;12.49;69.33;95481.56;4971149;28;20050;-76
2023/11/05 07:01:34;;;;;;;3.88;1.05;;;;;;;12.50;69.44;95483.19;4972159;28;20060;-76
2023/11/05 07:04:01;;;;;;;2.92;1.00;;;;;;;12.50;69.34;95486.66;4970908;28;20058;-76
2023/11/05 07:06:28;;;;;;;2.80;1.00;;;;;;;12.52;69.48;95489.03;4971102;28;20059;-77
2023/11/05 07:08:56;;;;;;;3.47;0.85;;;;;;;12.52;69.53;95494.31;4972260;28;20054;-76
2023/11/05 07:11:22;;;;;;;2.97;1.00;;;;;;;12.52;69.72;95486.41;4971768;28;20055;-76
2023/11/05 07:13:49;;;;;;;1.23;0.85;;;;;;;12.55;69.59;95493.09;4971933;28;20082;-76
2023/11/05 07:16:16;;;;;;;2.28;1.02;;;;;;;12.54;69.52;95502.84;4971978;28;20150;-77
2023/11/05 07:18:42;;;;;;;2.50;1.00;;;;;;;12.55;69.81;95501.84;4971768;28;20050;-76
2023/11/05 07:21:14;;;;;;;4.18;1.05;;;;;;;12.55;69.62;95507.09;4971774;28;20146;-76
2023/11/05 07:23:41;;;;;;;1.33;0.67;;;;;;;12.57;69.52;95507.72;4972159;28;20065;-76
2023/11/05 07:26:08;;;;;;;1.85;0.75;;;;;;;12.58;69.63;95508.53;4971943;28;20046;-75
2023/11/05 07:28:34;;;;;;;3.67;0.93;;;;;;;12.59;69.72;95512.78;4971959;28;20101;-77
2023/11/05 07:31:01;;;;;;;2.95;0.90;;;;;;;12.59;69.76;95512.78;4971637;28;20412;-77
2023/11/05 07:33:28;;;;;;;5.72;1.05;;;;;;;12.61;69.70;95516.03;4971765;28;20051;-76
2023/11/05 07:35:55;;;;;;;1.33;0.60;;;;;;;12.62;69.94;95522.91;4971999;28;20134;-76
2023/11/05 07:38:26;;;;;;;1.15;0.70;;;;;;;12.63;69.71;95522.72;4971831;28;20058;-77
2023/11/05 07:40:54;;;;;;;1.52;0.93;;;;;;;12.63;69.86;95511.34;4970544;28;20458;-77
2023/11/05 07:43:20;;;;;;;2.47;0.95;;;;;;;12.66;69.96;95520.69;4970567;28;20063;-77
2023/11/05 07:45:47;;;;;;;3.40;0.80;;;;;;;12.67;69.85;95519.69;4970496;28;20050;-76
2023/11/05 07:48:13;;;;;;;1.88;0.70;;;;;;;12.67;69.70;95520.47;4971877;28;20106;-76
2023/11/05 07:50:40;;;;;;;1.20;0.60;;;;;;;12.68;69.84;95523.94;4971692;28;20050;-77
2023/11/05 07:53:07;;;;;;;1.25;0.65;;;;;;;12.69;69.94;95530.81;4971770;28;20145;-76
2023/11/05 07:55:33;;;;;;;2.17;0.77;;;;;;;12.69;69.87;95531.66;4971668;28;20518;-76
2023/11/05 07:58:00;;;;;;;2.22;0.63;;;;;;;12.69;69.98;95531.66;4971598;28;20058;-76
2023/11/05 08:00:26;;;;;;;1.25;0.60;;;;;;;12.70;69.86;95533.25;4971351;28;20059;-77
2023/11/05 08:02:53;;;;;;;1.83;0.98;;;;;;;12.72;70.01;95540.97;4971715;28;20058;-76
2023/11/05 08:05:19;;;;;;;1.42;0.80;;;;;;;12.72;70.04;95531.25;4971707;28;20061;-76
2023/11/05 08:07:48;;;;;;;0.70;0.57;;;;;;;12.73;70.20;95542.59;4971378;28;20488;-76
2023/11/05 08:10:17;;;;;;;2.22;0.70;;;;;;;12.74;70.07;95545.03;4971222;28;20086;-76
2023/11/05 08:12:44;;;;;;;0.70;0.60;;;;;;;12.76;69.90;95555.38;4971118;28;20491;-76
2023/11/05 08:15:10;;;;;;;4.38;0.60;;;;;;;12.77;69.93;95557.00;4971261;28;20416;-77
2023/11/05 08:17:40;;;;;;;0.40;0.40;;;;;;;12.77;69.84;95557.00;4971291;28;20133;-77
2023/11/05 08:20:07;;;;;;;0.40;0.40;;;;;;;12.78;69.92;95561.25;4970053;28;20051;-76
2023/11/05 08:22:33;;;;;;;3.35;0.40;;;;;;;12.78;69.95;95561.25;4970399;28;20062;-76
2023/11/05 08:25:00;;;;;;;0.28;0.20;;;;;;;12.79;69.84;95568.16;4970882;28;20142;-76
2023/11/05 08:27:27;;;;;;;0.20;0.20;;;;;;;12.80;69.97;95574.25;4973190;28;20505;-77
2023/11/05 08:29:53;;;;;;;0.20;0.20;;;;;;;12.82;69.92;95572.22;4974831;28;20117;-76
2023/11/05 08:32:21;;;;;;;0.60;0.30;;;;;;;12.82;69.97;95583.56;4974914;28;20187;-77
2023/11/05 08:34:48;;;;;;;0.60;0.30;;;;;;;12.83;70.15;95579.94;4974911;28;20051;-76
2023/11/05 08:37:16;;;;;;;1.02;0.38;;;;;;;12.85;69.95;95584.97;4965227;28;20055;-76
2023/11/05 08:39:44;;;;;;;0.63;0.30;;;;;;;12.85;69.98;95593.72;4973882;28;20062;-77
2023/11/05 08:42:19;;;;;;;0.45;0.40;;;;;;;12.84;70.21;95594.75;4973298;28;20066;-77
2023/11/05 08:44:50;;;;;;;0.40;0.40;;;;;;;12.84;69.82;95605.31;4968347;28;20055;-78
2023/11/05 08:47:17;;;;;;;0.47;0.47;;;;;;;12.84;69.87;95600.03;4953885;28;20047;-76
2023/11/05 08:49:44;;;;;;;0.70;0.50;;;;;;;12.84;69.99;95605.31;4953470;28;20054;-77
2023/11/05 08:52:11;;;;;;;1.90;0.90;;;;;;;12.85;70.15;95614.84;4953725;28;20047;-76
2023/11/05 08:54:37;;;;;;;0.65;0.63;;;;;;;12.86;70.23;95619.09;4953676;28;20106;-76
2023/11/05 08:57:04;;;;;;;2.35;0.90;;;;;;;12.87;70.21;95614.63;4953924;28;20055;-77
2023/11/05 08:59:31;;;;;;;2.90;0.95;;;;;;;12.88;70.17;95619.72;4953878;29;20051;-77
2023/11/05 09:01:58;;;;;;;1.55;0.85;;;;;;;12.88;70.42;95625.00;4953889;28;20047;-76
2023/11/05 09:04:25;;;;;;;0.95;0.80;;;;;;;12.89;70.51;95617.88;4955127;28;20047;-76
2023/11/05 09:06:52;;;;;;;0.95;0.85;;;;;;;12.93;70.61;95628.84;4954841;28;20102;-76
2023/11/05 09:09:19;;;;;;;3.22;1.08;;;;;;;12.95;70.92;95640.81;4954798;28;20056;-76
2023/11/05 09:11:46;;;;;;;1.73;1.00;;;;;;;12.98;70.84;95631.69;4954637;28;20051;-76
2023/11/05 09:14:13;;;;;;;1.60;1.10;;;;;;;13.01;70.74;95639.19;4954937;28;20063;-76
2023/11/05 09:16:39;;;;;;;2.28;1.20;;;;;;;13.03;70.83;95640.59;4954681;28;20515;-76
2023/11/05 09:19:07;;;;;;;1.20;1.10;;;;;;;13.07;70.97;95648.09;4954810;28;20485;-76
2023/11/05 09:21:33;;;;;;;1.50;1.10;;;;;;;13.12;71.18;95649.09;4954385;28;20059;-77
2023/11/05 09:24:00;;;;;;;4.68;1.40;;;;;;;13.16;71.35;95650.31;4954830;28;20048;-77
2023/11/05 09:26:26;;;;;;;1.77;1.63;;;;;;;13.21;71.14;95662.09;4954652;28;20047;-77
2023/11/05 09:28:53;;;;;;;3.67;1.67;;;;;;;13.24;71.13;95659.06;4953449;29;20122;-76
2023/11/05 09:31:21;;;;;;;3.20;2.10;;;;;;;13.27;71.10;95670.00;4954361;28;20057;-77
2023/11/05 09:33:48;;;;;;;2.35;1.90;;;;;;;13.29;71.16;95667.16;4954620;28;20773;-75
2023/11/05 09:36:14;;;;;;;2.72;1.77;;;;;;;13.33;71.16;95678.94;4954178;28;20515;-77
2023/11/05 09:38:41;;;;;;;2.25;2.00;;;;;;;13.36;70.96;95675.88;4954522;28;20059;-76
2023/11/05 09:41:08;;;;;;;2.53;1.92;;;;;;;13.38;70.99;95679.13;4954355;28;20051;-77
2023/11/05 09:43:35;;;;;;;5.07;2.00;;;;;;;13.40;70.82;95677.09;4953122;29;20047;-77
2023/11/05 09:46:02;;;;;;;2.30;2.10;;;;;;;13.45;70.91;95686.25;4954659;28;20055;-77
2023/11/05 09:48:29;;;;;;;2.03;1.88;;;;;;;13.47;70.76;95684.19;4953852;28;20465;-77
2023/11/05 09:50:59;;;;;;;5.13;2.38;;;;;;;13.48;70.75;95693.75;4954392;28;20403;-76
2023/11/05 09:53:29;;;;;;;3.05;2.15;;;;;;;13.47;70.70;95694.75;4954118;28;20136;-77
2023/11/05 09:55:56;;;;;;;5.78;2.30;;;;;;;13.50;70.10;95699.66;4954092;28;20114;-77
2023/11/05 09:58:23;;;;;;;4.45;3.17;;;;;;;13.48;70.14;95704.31;4953810;28;20066;-77
2023/11/05 10:00:51;;;;;;;3.85;1.80;;;;;;;13.46;70.15;95703.69;4953769;28;20093;-76
2023/11/05 10:03:18;;;;;;;1.80;1.70;;;;;;;13.44;69.86;95706.53;4953866;28;20069;-78
2023/11/05 10:05:46;;;;;;;2.67;1.73;;;;;;;13.39;69.61;95715.06;4954152;28;20138;-76
2023/11/05 10:08:13;;;;;;;1.88;1.70;;;;;;;13.35;70.00;95713.88;4953920;28;20146;-77
2023/11/05 10:10:43;;;;;;;3.17;1.90;;;;;;;13.31;70.08;95717.13;4952506;29;20055;-77
2023/11/05 10:13:12;;;;;;;4.05;1.75;;;;;;;13.27;70.31;95711.47;4953849;28;20055;-77
2023/11/05 10:15:40;;;;;;;2.47;1.58;;;;;;;13.22;70.31;95725.25;4953702;28;20055;-77
2023/11/05 10:18:12;;;;;;;2.17;1.55;;;;;;;13.19;71.09;95722.22;4953444;29;20130;-77
2023/11/05 10:20:49;;;;;;;2.63;1.77;;;;;;;13.16;71.44;95718.19;4953659;28;20061;-77
2023/11/05 10:23:16;;;;;;;1.75;1.33;;;;;;;13.19;70.80;95727.50;4952451;29;20051;-76
2023/11/05 10:25:46;;;;;;;2.10;1.80;;;;;;;13.18;71.54;95733.78;4953633;28;20048;-77
2023/11/05 10:28:13;;;;;;;7.22;2.08;;;;;;;13.19;70.91;95733.59;4953389;28;20059;-77
2023/11/05 10:30:46;;;;;;;1.67;1.38;;;;;;;13.19;71.67;95738.06;4953460;28;20094;-76
2023/11/05 10:33:13;;;;;;;3.75;1.88;;;;;;;13.21;71.33;95747.41;4953560;28;20101;-76
2023/11/05 10:35:41;;;;;;;2.63;1.70;;;;;;;13.22;71.59;95737.66;4953364;28;20420;-76
2023/11/05 10:38:08;;;;;;;2.35;1.98;;;;;;;13.25;71.46;95746.00;4951859;29;20063;-77
2023/11/05 10:40:35;;;;;;;2.55;1.75;;;;;;;13.27;71.23;95759.78;4953100;28;20644;-78
2023/11/05 10:43:02;;;;;;;2.85;1.77;;;;;;;13.30;71.66;95758.56;4953147;28;20110;-76
2023/11/05 10:45:31;;;;;;;3.53;2.05;;;;;;;13.33;71.88;95760.81;4953401;28;20055;-77
2023/11/05 10:47:58;;;;;;;2.42;2.03;;;;;;;13.37;72.13;95763.84;4953264;29;20051;-76
2023/11/05 10:50:28;;;;;;;4.43;1.98;;;;;;;13.39;71.91;95765.25;4952550;28;20058;-77
2023/11/05 10:52:58;;;;;;;3.15;1.95;;;;;;;13.44;72.08;95767.31;4953070;28;20082;-76
2023/11/05 10:55:36;;;;;;;8.07;1.80;;;;;;;13.46;72.41;95777.66;4953015;28;20047;-76
2023/11/05 10:58:06;;;;;;;3.80;1.98;;;;;;;13.53;72.10;95776.66;4952882;28;20480;-79
2023/11/05 11:00:55;;;;;;;4.05;1.98;;;;;;;13.58;72.77;95785.81;4952821;28;20051;-76
2023/11/05 11:03:23;;;;;;;3.92;2.00;;;;;;;13.68;72.68;95780.91;4952958;28;20063;-76
2023/11/05 11:05:56;;;;;;;4.28;2.05;;;;;;;13.74;72.50;95787.19;4952705;28;20563;-77
2023/11/05 11:08:26;;;;;;;3.22;1.98;;;;;;;13.84;72.37;95794.72;4953033;28;20055;-76
2023/11/05 11:11:07;;;;;;;2.67;1.90;;;;;;;13.89;72.59;95798.38;4951918;29;20421;-76
2023/11/05 11:13:36;;;;;;;6.05;2.13;;;;;;;14.01;72.08;95797.72;4952706;28;20086;-77
2023/11/05 11:16:04;;;;;;;4.22;1.98;;;;;;;14.09;72.00;95802.78;4952122;28;20070;-78
2023/11/05 11:18:32;;;;;;;4.05;2.33;;;;;;;14.15;71.46;95807.25;4951559;28;20050;-78
2023/11/05 11:21:01;;;;;;;6.20;2.00;;;;;;;14.18;70.89;95806.84;4951630;29;20102;-76
2023/11/05 11:23:28;;;;;;;3.47;2.00;;;;;;;14.22;70.74;95809.88;4951809;28;20142;-78
2023/11/05 11:26:17;;;;;;;2.95;1.90;;;;;;;14.21;71.41;95818.84;4952018;28;20051;-76
2023/11/05 11:28:45;;;;;;;4.22;2.10;;;;;;;14.30;71.13;95824.69;4952564;28;20055;-76
2023/11/05 11:31:12;;;;;;;4.85;2.20;;;;;;;14.33;71.40;95811.06;4951312;29;20068;-77
2023/11/05 11:33:39;;;;;;;4.55;2.55;;;;;;;14.38;71.21;95820.97;4952625;28;20051;-77
2023/11/05 11:36:07;;;;;;;4.53;1.80;;;;;;;14.44;71.33;95825.47;4952496;28;20059;-77